Time;durP1;ratioP1;P1;durP2;ratioP2;P2;SDS_P1;SDS_P2;PMS_P1;PMS_P2;Temp;Humidity;BMP_temperature;BMP_pressure;BME280_temperature;BME280_humidity;BME280_pressure;Samples;Min_cycle;Max_cycle;Signal;HPM_P1;HPM_P2
2021/07/16 00:01:58;;;;;;;0.40;0.40;;;24.40;62.10;;;;;;6240809;28;20033;-70
2021/07/16 00:04:59;;;;;;;0.45;0.38;;;24.40;62.10;;;;;;6240243;28;20022;-70
2021/07/16 00:08:00;;;;;;;0.47;0.45;;;24.40;62.10;;;;;;6240449;28;20053;-70
2021/07/16 00:11:00;;;;;;;0.40;0.40;;;24.40;62.10;;;;;;6240095;28;20033;-70
2021/07/16 00:14:02;;;;;;;0.60;0.60;;;24.40;62.10;;;;;;6227185;28;20571;-70
2021/07/16 00:17:02;;;;;;;0.68;0.57;;;24.40;62.20;;;;;;6216990;28;20076;-70
2021/07/16 00:20:04;;;;;;;0.50;0.40;;;24.40;62.10;;;;;;6240264;28;20496;-70
2021/07/16 00:23:05;;;;;;;0.50;0.50;;;24.40;62.10;;;;;;6238030;28;20026;-70
2021/07/16 00:26:05;;;;;;;0.45;0.45;;;24.40;62.10;;;;;;6215529;28;20072;-71
2021/07/16 00:29:06;;;;;;;0.43;0.43;;;24.40;62.10;;;;;;6232764;28;20053;-70
2021/07/16 00:32:07;;;;;;;0.30;0.30;;;24.40;62.10;;;;;;6239714;28;20107;-70
2021/07/16 00:35:08;;;;;;;0.40;0.40;;;24.40;62.10;;;;;;6240028;28;20038;-70
2021/07/16 00:38:09;;;;;;;0.50;0.50;;;24.40;62.10;;;;;;6239381;28;20083;-70
2021/07/16 00:41:09;;;;;;;0.32;0.32;;;24.40;62.20;;;;;;6239598;28;20385;-70
2021/07/16 00:44:12;;;;;;;0.40;0.40;;;24.40;62.10;;;;;;6239539;28;20025;-70
2021/07/16 00:47:12;;;;;;;0.50;0.50;;;24.40;63.00;;;;;;6239732;28;20116;-70
2021/07/16 00:50:19;;;;;;;0.32;0.32;;;24.40;62.10;;;;;;6238846;28;20040;-70
2021/07/16 00:53:21;;;;;;;0.50;0.50;;;24.40;62.20;;;;;;6232750;28;20334;-70
2021/07/16 00:56:22;;;;;;;0.45;0.45;;;24.40;62.10;;;;;;6215195;28;20473;-70
2021/07/16 00:59:25;;;;;;;0.40;0.40;;;24.40;62.10;;;;;;6230001;28;20030;-70
2021/07/16 01:02:26;;;;;;;0.40;0.40;;;24.40;62.10;;;;;;6239499;28;20064;-70
2021/07/16 01:05:27;;;;;;;0.50;0.47;;;24.40;62.20;;;;;;6239118;28;20018;-70
2021/07/16 01:08:28;;;;;;;0.40;0.40;;;24.40;62.10;;;;;;6239661;28;20063;-70
2021/07/16 01:11:29;;;;;;;0.50;0.50;;;24.40;62.10;;;;;;6239752;28;20021;-70
2021/07/16 01:14:30;;;;;;;0.68;0.57;;;24.40;62.10;;;;;;6239306;28;20034;-70
2021/07/16 01:17:32;;;;;;;0.30;0.30;;;24.40;62.10;;;;;;6239938;28;20033;-71
2021/07/16 01:20:33;;;;;;;0.65;0.60;;;24.40;62.20;;;;;;6241602;28;20030;-70
2021/07/16 01:23:34;;;;;;;3.13;0.40;;;24.40;62.10;;;;;;6245136;28;20032;-70
2021/07/16 01:26:36;;;;;;;0.50;0.50;;;24.40;62.10;;;;;;6227690;28;20022;-70
2021/07/16 01:29:37;;;;;;;0.40;0.40;;;24.40;62.10;;;;;;6224040;28;20059;-70
2021/07/16 01:32:39;;;;;;;0.45;0.45;;;24.40;62.20;;;;;;6239217;28;20048;-70
2021/07/16 01:35:40;;;;;;;0.43;0.43;;;24.40;62.20;;;;;;6238999;28;20044;-70
2021/07/16 01:38:40;;;;;;;0.50;0.50;;;24.40;62.10;;;;;;6239530;28;20029;-70
2021/07/16 01:41:41;;;;;;;0.50;0.50;;;24.40;62.10;;;;;;6238823;28;20444;-70
2021/07/16 01:44:43;;;;;;;0.40;0.40;;;24.40;62.10;;;;;;6239013;28;20039;-70
2021/07/16 01:47:58;;;;;;;0.60;0.60;;;24.40;62.10;;;;;;6239062;28;20029;-70
2021/07/16 01:50:59;;;;;;;;;;;24.40;62.20;;;;;;6243701;28;20030;-70
2021/07/16 01:54:00;;;;;;;0.65;0.43;;;24.40;62.10;;;;;;6231729;28;20261;-71
2021/07/16 01:57:01;;;;;;;0.65;0.50;;;24.40;62.10;;;;;;6243448;28;20044;-71
2021/07/16 02:00:09;;;;;;;0.50;0.50;;;24.40;62.10;;;;;;6239907;28;20040;-71
2021/07/16 02:03:12;;;;;;;0.43;0.43;;;24.40;62.20;;;;;;6243652;28;20013;-70
2021/07/16 02:06:13;;;;;;;0.50;0.50;;;24.40;62.20;;;;;;6243117;28;20029;-70
2021/07/16 02:09:14;;;;;;;0.57;0.40;;;24.40;62.10;;;;;;6243308;28;20068;-70
2021/07/16 02:12:14;;;;;;;0.52;0.40;;;24.40;62.10;;;;;;6243188;28;20037;-70
2021/07/16 02:15:27;;;;;;;0.63;0.45;;;24.40;62.20;;;;;;6242907;28;20072;-70
2021/07/16 02:18:28;;;;;;;0.88;0.70;;;24.40;62.20;;;;;;6242972;28;20519;-70
2021/07/16 02:21:29;;;;;;;0.30;0.30;;;24.40;62.20;;;;;;6242848;28;20029;-70
2021/07/16 02:24:29;;;;;;;0.40;0.40;;;24.40;62.10;;;;;;6243017;28;20045;-70
2021/07/16 02:27:32;;;;;;;0.73;0.50;;;24.40;62.10;;;;;;6218530;28;20133;-70
2021/07/16 02:30:33;;;;;;;0.60;0.50;;;24.40;62.10;;;;;;6225682;28;20503;-70
2021/07/16 02:33:34;;;;;;;0.40;0.40;;;24.40;62.10;;;;;;6242738;28;20042;-70
2021/07/16 02:36:35;;;;;;;0.50;0.50;;;24.40;62.20;;;;;;6242449;28;20029;-70
2021/07/16 02:39:35;;;;;;;0.40;0.40;;;24.40;62.10;;;;;;6242912;28;20101;-70
2021/07/16 02:42:36;;;;;;;0.50;0.47;;;24.40;62.10;;;;;;6242256;28;20032;-71
2021/07/16 02:45:37;;;;;;;0.57;0.40;;;24.40;62.10;;;;;;6242674;28;20044;-70
2021/07/16 02:48:39;;;;;;;0.50;0.50;;;24.40;62.10;;;;;;6242637;28;20460;-70
2021/07/16 02:51:40;;;;;;;0.60;0.60;;;24.40;62.10;;;;;;6241951;28;20092;-70
2021/07/16 02:54:40;;;;;;;0.38;0.38;;;24.40;62.10;;;;;;6224244;28;20481;-70
2021/07/16 02:57:41;;;;;;;0.40;0.40;;;24.40;62.10;;;;;;6238846;28;20029;-70
2021/07/16 03:00:42;;;;;;;0.50;0.43;;;24.40;62.10;;;;;;6240529;28;20022;-70
2021/07/16 03:03:42;;;;;;;0.50;0.50;;;24.40;62.20;;;;;;6241927;28;20021;-70
2021/07/16 03:06:43;;;;;;;0.55;0.55;;;24.40;62.10;;;;;;6229491;28;20060;-70
2021/07/16 03:09:43;;;;;;;0.57;0.57;;;24.40;62.20;;;;;;6217499;28;20118;-70
2021/07/16 03:12:44;;;;;;;0.50;0.40;;;24.40;62.10;;;;;;6234439;28;20029;-70
2021/07/16 03:15:45;;;;;;;0.57;0.57;;;24.40;62.10;;;;;;6241433;28;20148;-70
2021/07/16 03:18:46;;;;;;;0.55;0.55;;;24.40;62.10;;;;;;6241512;28;20283;-70
2021/07/16 03:21:46;;;;;;;0.50;0.50;;;24.40;62.10;;;;;;6241526;28;20504;-70
2021/07/16 03:24:47;;;;;;;0.60;0.57;;;24.40;62.20;;;;;;6239736;28;20044;-70
2021/07/16 03:27:48;;;;;;;0.70;0.50;;;24.40;62.10;;;;;;6217058;28;20057;-70
2021/07/16 03:30:48;;;;;;;1.27;0.50;;;24.40;62.10;;;;;;6216778;28;20025;-70
2021/07/16 03:33:49;;;;;;;0.85;0.70;;;24.40;62.10;;;;;;6237744;28;20041;-70
2021/07/16 03:36:49;;;;;;;1.02;0.65;;;24.40;62.20;;;;;;6241116;28;20126;-70
2021/07/16 03:39:50;;;;;;;0.57;0.52;;;24.40;62.10;;;;;;6241356;28;20026;-70
2021/07/16 03:42:51;;;;;;;0.40;0.40;;;24.40;62.10;;;;;;6241174;28;20022;-70
2021/07/16 03:45:52;;;;;;;0.40;0.40;;;24.40;62.20;;;;;;6240923;28;20052;-70
2021/07/16 03:48:53;;;;;;;0.40;0.40;;;24.40;62.10;;;;;;6240757;28;20512;-70
2021/07/16 03:51:55;;;;;;;0.45;0.40;;;24.40;62.20;;;;;;6241217;28;20041;-70
2021/07/16 03:54:56;;;;;;;0.50;0.50;;;24.40;62.10;;;;;;6221137;28;20026;-70
2021/07/16 03:57:57;;;;;;;0.65;0.60;;;24.40;62.20;;;;;;6226802;28;20084;-70
2021/07/16 04:00:58;;;;;;;0.73;0.70;;;24.40;62.10;;;;;;6256012;28;20035;-70
2021/07/16 04:03:58;;;;;;;0.50;0.50;;;24.40;62.10;;;;;;6240533;28;20037;-70
2021/07/16 04:06:59;;;;;;;0.55;0.55;;;24.40;62.20;;;;;;6223926;28;20034;-70
2021/07/16 04:10:00;;;;;;;0.40;0.40;;;24.40;62.10;;;;;;6240183;28;20044;-70
2021/07/16 04:13:04;;;;;;;0.50;0.50;;;24.40;62.20;;;;;;6239980;28;20057;-70
2021/07/16 04:16:04;;;;;;;0.50;0.50;;;24.40;62.10;;;;;;6240785;28;20419;-70
2021/07/16 04:19:05;;;;;;;0.73;0.50;;;24.40;62.10;;;;;;6230563;28;20168;-70
2021/07/16 04:22:06;;;;;;;0.40;0.40;;;24.40;62.20;;;;;;6216081;28;20109;-70
2021/07/16 04:25:08;;;;;;;0.55;0.45;;;24.40;62.10;;;;;;6233391;28;20022;-70
2021/07/16 04:28:08;;;;;;;0.40;0.40;;;24.40;62.10;;;;;;6221026;28;20053;-70
2021/07/16 04:31:09;;;;;;;0.50;0.50;;;24.40;62.10;;;;;;6240761;28;20083;-70
2021/07/16 04:34:09;;;;;;;0.50;0.50;;;24.40;62.10;;;;;;6240727;28;20041;-70
2021/07/16 04:37:11;;;;;;;0.50;0.50;;;24.40;62.10;;;;;;6239993;28;20026;-70
2021/07/16 04:40:19;;;;;;;0.50;0.40;;;24.40;62.10;;;;;;6239819;28;20063;-70
2021/07/16 04:43:20;;;;;;;0.80;0.70;;;24.40;62.00;;;;;;6236871;28;20179;-70
2021/07/16 04:46:20;;;;;;;0.55;0.45;;;24.40;62.10;;;;;;6239888;28;20029;-70
2021/07/16 04:49:21;;;;;;;0.65;0.50;;;24.40;62.10;;;;;;6240237;28;20064;-70
2021/07/16 04:52:21;;;;;;;1.02;0.80;;;24.40;62.10;;;;;;6239077;28;20033;-70
2021/07/16 04:55:22;;;;;;;0.80;0.60;;;24.40;62.10;;;;;;6236060;28;20040;-70
2021/07/16 04:58:22;;;;;;;0.60;0.60;;;24.40;62.10;;;;;;6240308;28;20064;-70
2021/07/16 05:01:25;;;;;;;0.50;0.50;;;24.40;62.10;;;;;;6234565;28;20034;-70
2021/07/16 05:04:25;;;;;;;0.50;0.50;;;24.40;62.20;;;;;;6218354;28;20026;-70
2021/07/16 05:07:26;;;;;;;0.40;0.40;;;24.40;62.10;;;;;;6216627;28;20473;-70
2021/07/16 05:10:26;;;;;;;0.57;0.57;;;24.40;62.10;;;;;;6232261;28;20034;-70
2021/07/16 05:13:27;;;;;;;0.93;0.50;;;24.40;62.10;;;;;;6239717;28;20029;-70
2021/07/16 05:16:28;;;;;;;0.50;0.50;;;24.40;62.10;;;;;;6238678;28;20395;-69
2021/07/16 05:19:28;;;;;;;0.65;0.65;;;24.40;62.10;;;;;;6240074;28;20030;-70
2021/07/16 05:22:29;;;;;;;0.70;0.60;;;24.40;62.10;;;;;;6240070;28;20449;-70
2021/07/16 05:25:31;;;;;;;0.57;0.57;;;24.40;62.10;;;;;;6235497;28;20010;-70
2021/07/16 05:28:32;;;;;;;0.73;0.55;;;24.40;62.10;;;;;;6226022;28;20046;-70
2021/07/16 05:31:32;;;;;;;0.60;0.57;;;24.40;62.10;;;;;;6195023;28;20033;-70
2021/07/16 05:34:33;;;;;;;0.70;0.60;;;24.40;62.10;;;;;;6196394;28;20026;-70
2021/07/16 05:37:33;;;;;;;0.60;0.60;;;24.40;62.10;;;;;;6195645;28;20092;-70
2021/07/16 05:40:35;;;;;;;0.55;0.55;;;24.40;62.10;;;;;;6195665;28;20085;-70
2021/07/16 05:43:36;;;;;;;0.60;0.60;;;24.40;62.20;;;;;;6195704;28;20461;-70
2021/07/16 05:46:36;;;;;;;0.50;0.50;;;24.40;62.10;;;;;;6194971;28;20030;-70
2021/07/16 05:49:37;;;;;;;0.50;0.50;;;24.40;62.20;;;;;;6195311;28;20049;-70
2021/07/16 05:52:38;;;;;;;1.48;0.47;;;24.40;62.10;;;;;;6194828;28;20045;-70
2021/07/16 05:55:39;;;;;;;0.60;0.47;;;24.40;62.10;;;;;;6169707;28;20307;-70
2021/07/16 05:58:40;;;;;;;0.40;0.40;;;24.40;62.10;;;;;;6194903;28;20030;-70
2021/07/16 06:01:40;;;;;;;0.80;0.70;;;24.40;62.10;;;;;;6175718;28;20026;-70
2021/07/16 06:04:41;;;;;;;0.40;0.40;;;24.40;62.10;;;;;;6173588;28;20038;-70
2021/07/16 06:07:42;;;;;;;0.43;0.43;;;24.40;62.10;;;;;;6172692;28;20423;-70
2021/07/16 06:10:43;;;;;;;0.50;0.47;;;24.40;62.10;;;;;;6180610;28;20054;-70
2021/07/16 06:13:44;;;;;;;0.30;0.30;;;24.40;62.00;;;;;;6196940;28;20493;-70
2021/07/16 06:16:49;;;;;;;1.00;0.70;;;24.40;62.10;;;;;;6196808;28;20041;-70
2021/07/16 06:19:50;;;;;;;0.82;0.75;;;24.40;63.00;;;;;;6172826;28;20109;-70
2021/07/16 06:22:51;;;;;;;0.50;0.45;;;24.40;62.20;;;;;;6196048;28;20060;-70
2021/07/16 06:25:51;;;;;;;0.40;0.40;;;24.40;62.20;;;;;;6185905;28;20018;-70
2021/07/16 06:28:52;;;;;;;1.13;0.40;;;24.40;62.30;;;;;;6229277;28;20127;-70
2021/07/16 06:31:52;;;;;;;1.38;0.60;;;24.40;62.30;;;;;;6244613;28;20107;-71
2021/07/16 06:34:53;;;;;;;0.98;0.60;;;24.40;62.30;;;;;;6244859;28;20026;-70
2021/07/16 06:37:53;;;;;;;0.40;0.40;;;24.40;62.30;;;;;;6244666;28;20109;-70
2021/07/16 06:40:54;;;;;;;0.82;0.40;;;24.40;62.30;;;;;;6244918;28;20373;-70
2021/07/16 06:43:55;;;;;;;0.90;0.60;;;24.40;62.20;;;;;;6245228;28;20072;-70
2021/07/16 06:46:55;;;;;;;1.25;0.80;;;24.40;62.30;;;;;;6244151;28;20025;-70
2021/07/16 06:49:56;;;;;;;0.60;0.50;;;24.40;62.20;;;;;;6244694;28;20531;-70
2021/07/16 06:52:56;;;;;;;0.57;0.50;;;24.40;62.30;;;;;;6241204;28;20118;-70
2021/07/16 06:55:57;;;;;;;0.55;0.55;;;24.40;62.20;;;;;;6222644;28;20095;-70
2021/07/16 06:59:00;;;;;;;1.02;0.60;;;24.40;62.20;;;;;;6244387;28;20029;-70
2021/07/16 07:02:01;;;;;;;1.40;0.40;;;24.40;62.20;;;;;;6244298;28;20487;-70
2021/07/16 07:05:01;;;;;;;1.35;0.50;;;24.40;62.20;;;;;;6244382;28;20060;-70
2021/07/16 07:08:04;;;;;;;0.65;0.55;;;24.40;62.20;;;;;;6244592;28;20034;-69
2021/07/16 07:11:06;;;;;;;0.88;0.63;;;24.40;62.20;;;;;;6243799;28;20052;-70
2021/07/16 07:14:06;;;;;;;1.83;0.55;;;24.40;62.20;;;;;;6244261;28;20075;-70
2021/07/16 07:17:07;;;;;;;0.60;0.60;;;24.40;62.20;;;;;;6243927;28;20025;-70
2021/07/16 07:20:08;;;;;;;1.33;0.70;;;24.40;62.20;;;;;;6244207;28;20032;-70
2021/07/16 07:23:09;;;;;;;0.68;0.60;;;24.40;62.20;;;;;;6244274;28;20064;-70
2021/07/16 07:26:09;;;;;;;5.97;0.50;;;24.40;62.20;;;;;;6230193;28;20029;-70
2021/07/16 07:29:10;;;;;;;0.60;0.60;;;24.40;62.20;;;;;;6242568;28;20049;-71
2021/07/16 07:32:11;;;;;;;0.60;0.55;;;24.40;62.20;;;;;;6243626;28;20025;-70
2021/07/16 07:35:12;;;;;;;0.60;0.60;;;24.40;62.20;;;;;;6243538;28;20373;-70
2021/07/16 07:38:12;;;;;;;1.02;0.60;;;24.40;62.20;;;;;;6243738;28;20018;-70
2021/07/16 07:41:13;;;;;;;0.60;0.60;;;24.40;62.20;;;;;;6244186;28;20033;-70
2021/07/16 07:44:15;;;;;;;0.77;0.60;;;24.40;62.20;;;;;;6243783;28;20025;-70
2021/07/16 07:47:16;;;;;;;0.70;0.50;;;24.40;62.20;;;;;;6242632;28;20017;-70
2021/07/16 07:50:18;;;;;;;0.73;0.60;;;24.40;62.20;;;;;;6243591;28;20024;-70
2021/07/16 07:53:18;;;;;;;0.63;0.60;;;24.40;63.00;;;;;;6237002;28;20108;-70
2021/07/16 07:56:19;;;;;;;0.70;0.65;;;24.40;62.20;;;;;;6219333;28;20052;-70
2021/07/16 07:59:22;;;;;;;0.93;0.50;;;24.40;62.20;;;;;;6238819;28;20129;-70
2021/07/16 08:02:23;;;;;;;0.50;0.50;;;24.40;63.00;;;;;;6239508;28;20026;-70
2021/07/16 08:05:24;;;;;;;1.02;0.60;;;24.40;62.20;;;;;;6218657;28;20107;-70
2021/07/16 08:08:24;;;;;;;1.00;0.90;;;24.40;62.20;;;;;;6227191;28;20029;-70
2021/07/16 08:11:26;;;;;;;0.63;0.60;;;24.40;62.20;;;;;;6242998;28;20033;-70
2021/07/16 08:14:27;;;;;;;0.60;0.60;;;24.40;62.20;;;;;;6242574;28;20124;-70
2021/07/16 08:17:27;;;;;;;0.60;0.60;;;24.40;62.20;;;;;;6242759;28;20029;-70
2021/07/16 08:20:28;;;;;;;1.23;0.63;;;24.40;62.10;;;;;;6243020;28;20535;-70
2021/07/16 08:23:29;;;;;;;1.15;0.77;;;24.40;62.20;;;;;;6243004;28;20065;-70
2021/07/16 08:26:29;;;;;;;0.52;0.52;;;24.40;62.10;;;;;;6226787;28;20057;-70
2021/07/16 08:29:30;;;;;;;0.82;0.57;;;24.40;62.10;;;;;;6232550;28;20045;-70
2021/07/16 08:32:30;;;;;;;0.70;0.60;;;24.40;62.20;;;;;;6242630;28;20236;-70
2021/07/16 08:35:31;;;;;;;1.10;0.57;;;24.40;62.20;;;;;;6242457;28;20037;-70
2021/07/16 08:38:31;;;;;;;0.73;0.60;;;24.40;62.10;;;;;;6227281;28;20036;-70
2021/07/16 08:41:33;;;;;;;0.82;0.70;;;24.40;62.20;;;;;;6223183;28;20026;-70
2021/07/16 08:44:35;;;;;;;0.95;0.85;;;24.40;62.20;;;;;;6232757;28;20030;-70
2021/07/16 08:47:38;;;;;;;0.80;0.70;;;24.40;62.20;;;;;;6242671;28;20044;-70
2021/07/16 08:50:39;;;;;;;0.68;0.68;;;24.40;62.20;;;;;;6242798;28;20063;-70
2021/07/16 08:53:39;;;;;;;0.80;0.68;;;24.40;62.20;;;;;;6236941;28;20061;-70
2021/07/16 08:56:40;;;;;;;2.17;0.60;;;24.40;62.20;;;;;;6242476;28;20024;-70
2021/07/16 08:59:40;;;;;;;0.63;0.60;;;24.40;62.10;;;;;;6246330;28;20104;-70
2021/07/16 09:02:54;;;;;;;0.80;0.50;;;24.40;62.10;;;;;;6247885;28;20025;-70
2021/07/16 09:05:55;;;;;;;0.75;0.75;;;24.40;62.10;;;;;;6229132;28;20041;-70
2021/07/16 09:09:06;;;;;;;0.50;0.50;;;24.40;62.10;;;;;;6247503;28;20467;-70
2021/07/16 09:12:08;;;;;;;0.60;0.60;;;24.40;62.20;;;;;;6247658;28;20096;-70
2021/07/16 09:15:11;;;;;;;0.73;0.68;;;24.40;62.10;;;;;;6246943;28;20266;-70
2021/07/16 09:18:23;;;;;;;1.17;0.70;;;24.40;62.10;;;;;;6248013;28;20032;-70
2021/07/16 09:21:24;;;;;;;0.73;0.60;;;24.40;62.10;;;;;;6249110;28;20036;-71
2021/07/16 09:24:25;;;;;;;0.95;0.70;;;24.40;62.10;;;;;;6246012;28;20060;-70
2021/07/16 09:27:42;;;;;;;0.88;0.80;;;24.40;62.20;;;;;;6223345;28;20058;-70
2021/07/16 09:30:42;;;;;;;0.73;0.73;;;24.40;62.20;;;;;;6233937;28;20145;-70
2021/07/16 09:33:47;;;;;;;1.15;0.75;;;24.40;62.20;;;;;;6246748;28;20136;-70
2021/07/16 09:36:48;;;;;;;1.15;0.90;;;24.40;62.10;;;;;;6261334;28;20099;-70
2021/07/16 09:39:48;;;;;;;1.00;0.70;;;24.40;62.20;;;;;;6205359;28;20473;-70
2021/07/16 09:42:56;;;;;;;0.60;0.60;;;24.40;62.10;;;;;;6194771;28;20308;-69
2021/07/16 09:46:04;;;;;;;0.60;0.60;;;24.40;62.20;;;;;;6210387;28;20358;-69
2021/07/16 09:49:13;;;;;;;1.02;0.75;;;24.40;62.20;;;;;;6221245;28;20030;-70
2021/07/16 09:52:19;;;;;;;0.77;0.75;;;24.40;62.10;;;;;;6222238;28;20065;-70
2021/07/16 09:55:21;;;;;;;0.68;0.60;;;24.40;62.10;;;;;;6208403;28;20045;-70
2021/07/16 09:58:23;;;;;;;1.02;0.82;;;24.40;62.10;;;;;;6212203;28;20073;-70
2021/07/16 10:01:25;;;;;;;0.70;0.60;;;24.40;62.10;;;;;;6223358;28;20028;-70
2021/07/16 10:04:32;;;;;;;1.10;0.85;;;24.40;62.10;;;;;;6221594;28;20030;-70
2021/07/16 10:07:33;;;;;;;0.75;0.70;;;24.40;62.10;;;;;;6221548;28;20474;-70
2021/07/16 10:10:34;;;;;;;0.55;0.55;;;24.40;62.10;;;;;;6220090;28;20040;-70
2021/07/16 10:13:37;;;;;;;0.93;0.75;;;24.40;62.20;;;;;;6200380;28;20122;-70
2021/07/16 10:16:39;;;;;;;0.98;0.88;;;24.40;62.10;;;;;;6205287;28;20027;-70
2021/07/16 10:19:40;;;;;;;0.70;0.70;;;24.40;62.20;;;;;;6196949;28;20050;-70
2021/07/16 10:22:42;;;;;;;0.90;0.60;;;24.40;62.10;;;;;;6219747;28;20099;-70
2021/07/16 10:25:46;;;;;;;0.68;0.68;;;24.40;62.10;;;;;;6208566;28;20334;-70
2021/07/16 10:28:47;;;;;;;0.90;0.70;;;24.40;62.20;;;;;;6195731;28;20402;-70
2021/07/16 10:31:47;;;;;;;0.88;0.70;;;24.40;62.10;;;;;;6212602;28;20061;-70
2021/07/16 10:34:48;;;;;;;1.00;0.80;;;24.40;62.10;;;;;;6210959;28;20046;-70
2021/07/16 10:37:59;;;;;;;1.10;0.63;;;24.40;62.10;;;;;;6220168;28;20484;-70
2021/07/16 10:41:01;;;;;;;0.75;0.75;;;24.40;62.10;;;;;;6219570;28;20085;-70
2021/07/16 10:44:02;;;;;;;1.38;0.95;;;24.40;62.20;;;;;;6206095;28;20023;-70
2021/07/16 10:47:36;;;;;;;1.15;0.80;;;24.40;62.10;;;;;;6211926;28;20136;-70
2021/07/16 10:50:38;;;;;;;0.50;0.50;;;24.40;62.10;;;;;;6219459;28;20137;-70
2021/07/16 10:53:39;;;;;;;1.02;0.82;;;24.40;62.10;;;;;;6201634;28;20042;-70
2021/07/16 10:56:47;;;;;;;0.88;0.70;;;24.40;62.10;;;;;;6195469;28;20477;-70
2021/07/16 10:59:48;;;;;;;0.70;0.70;;;24.40;62.20;;;;;;6219888;28;20041;-71
2021/07/16 11:02:49;;;;;;;1.40;0.60;;;24.40;62.10;;;;;;6197988;28;20030;-70
2021/07/16 11:05:51;;;;;;;0.80;0.80;;;24.40;62.10;;;;;;6194475;28;20065;-72
2021/07/16 11:08:54;;;;;;;1.20;0.77;;;24.40;62.10;;;;;;6213822;28;20071;-70
2021/07/16 11:11:54;;;;;;;0.98;0.88;;;24.40;62.10;;;;;;6218862;28;20052;-70
2021/07/16 11:14:55;;;;;;;2.58;0.85;;;24.40;62.10;;;;;;6219226;28;20131;-70
2021/07/16 11:17:56;;;;;;;1.60;0.95;;;24.40;62.10;;;;;;6208297;28;20555;-70
2021/07/16 11:20:57;;;;;;;0.68;0.63;;;24.40;62.10;;;;;;6193193;28;20022;-70
2021/07/16 11:23:57;;;;;;;1.00;0.90;;;24.40;62.10;;;;;;6217305;28;20028;-72
2021/07/16 11:27:01;;;;;;;1.63;0.80;;;24.40;62.10;;;;;;6205895;28;20104;-70
2021/07/16 11:30:01;;;;;;;0.88;0.88;;;24.40;62.10;;;;;;6220983;28;20590;-69
2021/07/16 11:33:05;;;;;;;0.90;0.82;;;24.40;62.20;;;;;;6214718;28;20104;-71
2021/07/16 11:36:05;;;;;;;0.90;0.80;;;24.40;62.10;;;;;;6193348;28;20041;-70
2021/07/16 11:39:06;;;;;;;0.90;0.70;;;24.40;62.20;;;;;;6210780;28;20026;-71
2021/07/16 11:42:08;;;;;;;0.70;0.70;;;24.40;62.20;;;;;;6199469;28;20038;-70
2021/07/16 11:45:11;;;;;;;1.08;0.90;;;24.40;62.10;;;;;;6193648;28;20030;-70
2021/07/16 11:48:19;;;;;;;0.82;0.63;;;24.40;62.20;;;;;;6207543;28;20105;-70
2021/07/16 11:51:55;;;;;;;0.70;0.70;;;24.40;62.10;;;;;;6204583;28;20058;-70
2021/07/16 11:55:07;;;;;;;1.00;0.90;;;24.40;62.10;;;;;;6176559;28;20538;-70
2021/07/16 11:58:07;;;;;;;0.77;0.73;;;24.40;62.10;;;;;;6193828;28;20087;-71
2021/07/16 12:01:11;;;;;;;0.93;0.80;;;24.40;62.10;;;;;;6218142;28;20030;-70
2021/07/16 12:04:22;;;;;;;0.75;0.73;;;24.40;62.10;;;;;;6218102;28;20105;-70
2021/07/16 12:07:22;;;;;;;0.95;0.85;;;24.40;62.10;;;;;;6206659;28;20061;-70
2021/07/16 12:10:23;;;;;;;0.90;0.70;;;24.40;62.10;;;;;;6215077;28;20448;-71
2021/07/16 12:13:23;;;;;;;2.72;0.80;;;24.40;62.10;;;;;;6217082;28;20038;-70
2021/07/16 12:16:24;;;;;;;1.00;0.90;;;24.40;62.20;;;;;;6217414;28;20036;-70
2021/07/16 12:19:25;;;;;;;1.00;0.80;;;24.40;62.10;;;;;;6213152;28;20297;-70
2021/07/16 12:22:29;;;;;;;1.15;0.77;;;24.40;62.20;;;;;;6217574;28;20546;-70
2021/07/16 12:25:30;;;;;;;0.68;0.65;;;24.40;62.20;;;;;;6206718;28;20543;-70
2021/07/16 12:28:30;;;;;;;0.90;0.80;;;24.40;62.20;;;;;;6202864;28;20057;-70
2021/07/16 12:31:34;;;;;;;1.77;1.10;;;24.40;62.20;;;;;;6217176;28;20485;-70
2021/07/16 12:34:41;;;;;;;1.05;0.95;;;24.40;62.20;;;;;;6208838;28;20049;-70
2021/07/16 12:37:43;;;;;;;1.42;0.95;;;24.40;62.20;;;;;;6216994;28;20041;-70
2021/07/16 12:40:47;;;;;;;0.93;0.80;;;24.40;62.20;;;;;;6201897;28;20026;-70
2021/07/16 12:43:48;;;;;;;1.65;0.70;;;24.40;62.20;;;;;;6203814;28;20102;-71
2021/07/16 12:46:57;;;;;;;1.13;1.00;;;24.40;62.20;;;;;;6206597;28;20085;-70
2021/07/16 12:50:15;;;;;;;1.20;0.82;;;24.40;62.20;;;;;;6211830;28;20033;-70
2021/07/16 12:53:55;;;;;;;0.98;0.90;;;24.40;62.20;;;;;;6216313;28;20081;-70
2021/07/16 12:57:10;;;;;;;1.20;0.95;;;24.40;62.20;;;;;;6173279;28;20045;-70
2021/07/16 13:00:20;;;;;;;0.80;0.80;;;24.40;62.20;;;;;;6205155;28;20069;-70
2021/07/16 13:03:23;;;;;;;0.80;0.80;;;24.40;62.10;;;;;;6216407;28;20034;-70
2021/07/16 13:06:30;;;;;;;0.85;0.73;;;24.40;62.20;;;;;;6216650;28;20381;-71
2021/07/16 13:09:34;;;;;;;0.60;0.60;;;24.40;62.20;;;;;;6216007;28;20386;-70
2021/07/16 13:12:34;;;;;;;0.90;0.90;;;24.40;62.20;;;;;;6210365;28;20030;-70
2021/07/16 13:15:35;;;;;;;0.90;0.80;;;24.40;62.20;;;;;;6209710;28;20073;-70
2021/07/16 13:18:43;;;;;;;0.80;0.68;;;24.40;62.20;;;;;;6216120;28;20099;-70
2021/07/16 13:21:43;;;;;;;1.25;1.00;;;24.40;62.20;;;;;;6216603;28;20100;-70
2021/07/16 13:24:44;;;;;;;1.20;0.90;;;24.40;62.20;;;;;;6206155;28;20037;-70
2021/07/16 13:27:47;;;;;;;0.80;0.80;;;24.40;62.20;;;;;;6207433;28;20045;-70
2021/07/16 13:30:49;;;;;;;1.00;0.90;;;24.40;62.20;;;;;;6206740;28;20031;-70
2021/07/16 13:33:49;;;;;;;2.35;1.60;;;24.40;61.30;;;;;;6196617;28;20043;-70
2021/07/16 13:36:50;;;;;;;2.33;1.80;;;24.40;59.40;;;;;;6188009;28;20110;-70
2021/07/16 13:39:50;;;;;;;3.30;1.80;;;24.40;59.10;;;;;;6194915;28;20075;-70
2021/07/16 13:42:51;;;;;;;1.80;1.70;;;24.40;59.20;;;;;;6195525;28;20030;-70
2021/07/16 13:45:52;;;;;;;1.92;1.70;;;24.40;59.00;;;;;;6203508;28;20477;-70
2021/07/16 13:48:52;;;;;;;3.72;2.50;;;24.40;59.00;;;;;;6194551;28;20038;-70
2021/07/16 13:51:55;;;;;;;3.88;1.55;;;24.40;59.60;;;;;;6207898;28;20030;-70
2021/07/16 13:54:55;;;;;;;2.88;1.95;;;24.40;60.10;;;;;;6202380;28;20053;-70
2021/07/16 13:57:56;;;;;;;2.10;1.70;;;24.40;59.60;;;;;;6200487;28;20034;-70
2021/07/16 14:00:57;;;;;;;3.58;2.08;;;24.30;59.30;;;;;;6202245;28;20104;-70
2021/07/16 14:03:58;;;;;;;5.00;2.47;;;24.30;59.40;;;;;;6195578;28;20227;-70
2021/07/16 14:06:59;;;;;;;3.58;2.28;;;24.30;59.30;;;;;;6202353;28;20481;-70
2021/07/16 14:09:59;;;;;;;2.42;2.15;;;24.30;59.40;;;;;;6200982;28;20041;-70
2021/07/16 14:13:00;;;;;;;3.30;2.60;;;24.30;59.80;;;;;;6200386;28;20509;-70
2021/07/16 14:16:00;;;;;;;2.30;2.10;;;24.30;59.90;;;;;;6206619;28;20531;-70
2021/07/16 14:19:03;;;;;;;2.38;2.17;;;24.30;59.70;;;;;;6194664;28;20038;-70
2021/07/16 14:22:03;;;;;;;4.28;2.80;;;24.30;59.70;;;;;;6207480;28;20037;-70
2021/07/16 14:25:08;;;;;;;3.53;2.85;;;24.30;59.30;;;;;;6194217;28;20023;-70
2021/07/16 14:28:08;;;;;;;2.88;2.30;;;24.30;60.40;;;;;;6199590;28;20068;-71
2021/07/16 14:31:09;;;;;;;3.97;2.45;;;24.30;60.20;;;;;;6217732;28;20034;-69
2021/07/16 14:34:10;;;;;;;6.35;2.72;;;24.30;60.20;;;;;;6206582;28;20045;-70
2021/07/16 14:37:11;;;;;;;3.00;2.42;;;24.30;59.90;;;;;;6207480;28;20519;-70
2021/07/16 14:40:13;;;;;;;3.97;2.70;;;24.30;59.80;;;;;;6205845;28;20014;-70
2021/07/16 14:43:13;;;;;;;4.43;2.88;;;24.30;59.90;;;;;;6215684;28;20381;-70
2021/07/16 14:46:14;;;;;;;3.65;3.00;;;24.30;59.90;;;;;;6194023;28;20029;-70
2021/07/16 14:49:15;;;;;;;4.38;2.53;;;24.30;59.70;;;;;;6197839;28;20045;-69
2021/07/16 14:52:15;;;;;;;3.60;2.78;;;24.30;59.90;;;;;;6207821;28;20079;-70
2021/07/16 14:55:18;;;;;;;3.90;2.95;;;24.30;60.20;;;;;;6197845;28;20034;-70
2021/07/16 14:58:19;;;;;;;4.28;2.90;;;24.30;60.20;;;;;;6205606;28;20553;-70
2021/07/16 15:01:19;;;;;;;4.70;3.03;;;24.30;60.30;;;;;;6206251;28;20036;-70
2021/07/16 15:04:20;;;;;;;4.45;3.30;;;24.30;61.00;;;;;;6215765;28;20029;-70
2021/07/16 15:07:21;;;;;;;4.95;3.40;;;24.30;60.30;;;;;;6207296;28;20366;-70
2021/07/16 15:10:21;;;;;;;3.92;3.28;;;24.30;60.30;;;;;;6219859;28;20393;-70
2021/07/16 15:13:22;;;;;;;4.45;2.72;;;24.30;60.30;;;;;;6208027;28;20528;-70
2021/07/16 15:16:23;;;;;;;5.28;3.55;;;24.30;60.20;;;;;;6200204;28;20465;-70
2021/07/16 15:19:25;;;;;;;5.88;3.60;;;24.30;60.20;;;;;;6199327;28;20030;-70
2021/07/16 15:22:25;;;;;;;3.70;3.10;;;24.30;60.30;;;;;;6207832;28;20036;-70
2021/07/16 15:25:27;;;;;;;6.95;3.53;;;24.30;60.40;;;;;;6194372;28;20422;-70
2021/07/16 15:28:27;;;;;;;6.07;3.75;;;24.30;60.50;;;;;;6201541;28;20559;-70
2021/07/16 15:31:29;;;;;;;3.90;3.35;;;24.30;60.40;;;;;;6200182;28;20038;-70
2021/07/16 15:34:30;;;;;;;4.57;3.55;;;24.20;60.60;;;;;;6202565;28;20512;-71
2021/07/16 15:37:31;;;;;;;4.43;3.53;;;24.20;60.40;;;;;;6206486;28;20025;-70
2021/07/16 15:40:32;;;;;;;6.05;3.30;;;24.20;60.60;;;;;;6189786;28;20401;-70
2021/07/16 15:43:33;;;;;;;5.00;3.80;;;24.20;60.70;;;;;;6207510;28;20026;-70
2021/07/16 15:46:35;;;;;;;5.13;3.70;;;24.20;60.60;;;;;;6198589;28;20477;-70
2021/07/16 15:49:35;;;;;;;4.13;3.42;;;24.20;60.60;;;;;;6199835;28;20117;-70